createdAt,value
2019-04-04T00:03:57.366Z,8.20
2019-04-04T00:09:01.984Z,8.10
2019-04-04T00:14:06.701Z,8.00
2019-04-04T00:19:09.462Z,8.00
2019-04-04T00:24:12.482Z,7.90
2019-04-04T00:29:17.247Z,7.80
2019-04-04T00:34:20.023Z,7.70
2019-04-04T00:39:24.547Z,7.60
2019-04-04T00:44:28.156Z,7.50
2019-04-04T00:49:31.013Z,7.40
2019-04-04T00:54:33.892Z,7.40
2019-04-04T00:59:36.607Z,7.30
2019-04-04T01:04:39.434Z,7.30
2019-04-04T01:09:42.193Z,7.30
2019-04-04T01:14:45.236Z,7.30
2019-04-04T01:19:49.801Z,7.30
2019-04-04T01:24:52.741Z,7.20
2019-04-04T01:29:55.559Z,7.20
2019-04-04T01:34:58.401Z,7.10
2019-04-04T01:40:02.233Z,7.00
2019-04-04T01:45:07.553Z,6.90
2019-04-04T01:50:10.442Z,6.90
2019-04-04T01:55:14.808Z,6.80
2019-04-04T02:00:17.987Z,6.70
2019-04-04T02:05:20.945Z,6.60
2019-04-04T02:10:23.647Z,6.50
2019-04-04T02:15:26.571Z,6.50
2019-04-04T02:20:31.670Z,6.40
2019-04-04T02:25:34.864Z,6.40
2019-04-04T02:30:38.395Z,6.40
2019-04-04T02:35:43.727Z,6.30
2019-04-04T02:40:46.701Z,6.40
2019-04-04T02:45:49.645Z,6.40
2019-04-04T02:50:52.478Z,6.40
2019-04-04T02:55:55.372Z,6.30
2019-04-04T03:01:00.360Z,6.30
2019-04-04T03:06:03.059Z,6.30
2019-04-04T03:11:06.269Z,6.20
2019-04-04T03:16:09.509Z,6.20
2019-04-04T03:21:12.324Z,6.10
2019-04-04T03:26:19.088Z,6.10
2019-04-04T03:31:19.943Z,6.10
2019-04-04T03:36:22.973Z,6.10
2019-04-04T03:41:27.581Z,6.10
2019-04-04T03:46:37.697Z,6.10
2019-04-04T03:51:38.068Z,6.20
2019-04-04T03:56:42.526Z,6.20
2019-04-04T04:01:46.500Z,6.10
2019-04-04T04:06:50.621Z,6.10
2019-04-04T04:11:53.673Z,6.00
2019-04-04T04:16:58.714Z,5.90
2019-04-04T04:22:01.574Z,5.90
2019-04-04T04:27:05.186Z,5.90
2019-04-04T04:32:07.946Z,5.80
2019-04-04T04:37:11.039Z,5.80
2019-04-04T04:42:21.541Z,5.80
2019-04-04T04:47:25.346Z,5.80
2019-04-04T04:52:28.271Z,5.80
2019-04-04T04:57:30.968Z,5.80
2019-04-04T05:02:53.095Z,5.90
2019-04-04T05:07:56.777Z,6.00
2019-04-04T05:12:59.576Z,6.10
2019-04-04T05:18:02.992Z,6.20
2019-04-04T05:23:05.793Z,6.30
2019-04-04T05:28:10.409Z,6.40
2019-04-04T05:33:13.897Z,6.60
2019-04-04T05:38:16.711Z,6.70
2019-04-04T05:43:19.562Z,6.90
2019-04-04T05:48:22.446Z,7.10
2019-04-04T05:53:25.198Z,7.20
2019-04-04T05:58:29.222Z,7.30
2019-04-04T06:03:31.977Z,7.40
2019-04-04T06:08:34.870Z,7.50
2019-04-04T06:13:37.679Z,7.60
2019-04-04T06:18:41.007Z,7.60
2019-04-04T06:23:45.219Z,7.80
2019-04-04T06:28:47.975Z,7.90
2019-04-04T06:33:50.725Z,7.90
2019-04-04T06:38:54.510Z,8.10
2019-04-04T06:43:57.435Z,8.30
2019-04-04T06:49:03.977Z,8.50
2019-04-04T06:54:04.900Z,8.70
2019-04-04T06:59:11.234Z,8.80
2019-04-04T07:04:12.233Z,8.90
2019-04-04T07:09:18.224Z,9.10
2019-04-04T07:14:19.670Z,9.30
2019-04-04T07:19:22.463Z,9.40
2019-04-04T07:24:25.403Z,9.50
2019-04-04T07:29:29.914Z,9.60
2019-04-04T07:34:32.847Z,9.70
2019-04-04T07:39:35.577Z,9.80
2019-04-04T07:44:38.350Z,10.00
2019-04-04T07:49:41.085Z,10.20
2019-04-04T07:54:44.675Z,10.30
2019-04-04T07:59:47.402Z,10.50
2019-04-04T08:04:50.147Z,10.80
2019-04-04T08:09:52.881Z,11.40
2019-04-04T08:15:11.754Z,11.50
2019-04-04T08:20:15.051Z,11.60
2019-04-04T08:25:17.724Z,11.80
2019-04-04T08:30:20.542Z,12.00
2019-04-04T08:35:23.406Z,12.30
2019-04-04T08:40:31.095Z,12.60
2019-04-04T08:45:33.943Z,12.50
2019-04-04T08:50:36.750Z,12.60
2019-04-04T08:55:40.859Z,12.70
2019-04-04T09:00:43.623Z,13.20
2019-04-04T09:05:46.437Z,13.30
2019-04-04T09:10:49.236Z,13.30
2019-04-04T09:15:53.092Z,13.30
2019-04-04T09:20:55.887Z,13.30
2019-04-04T09:26:05.531Z,13.40
2019-04-04T09:31:03.182Z,13.50
2019-04-04T09:36:05.984Z,13.50
2019-04-04T09:41:09.723Z,13.40
2019-04-04T09:46:12.481Z,13.50
2019-04-04T09:51:15.161Z,13.80
2019-04-04T09:56:17.856Z,14.30
2019-04-04T10:01:20.597Z,14.80
2019-04-04T10:06:23.305Z,15.30
2019-04-04T10:11:26.168Z,15.50
2019-04-04T10:16:28.897Z,15.80
2019-04-04T10:21:31.490Z,15.70
2019-04-04T10:26:35.530Z,15.70
2019-04-04T10:31:38.262Z,15.40
2019-04-04T10:36:42.288Z,15.40
2019-04-04T10:41:45.048Z,15.80
2019-04-04T10:46:47.857Z,16.30
2019-04-04T10:51:50.648Z,16.50
2019-04-04T10:56:53.483Z,16.70
2019-04-04T11:01:57.733Z,17.20
2019-04-04T11:07:00.848Z,17.50
2019-04-04T11:12:03.529Z,17.80
2019-04-04T11:17:06.300Z,18.00
2019-04-04T11:22:09.556Z,18.20
2019-04-04T11:27:12.318Z,18.40
2019-04-04T11:32:15.126Z,18.50
2019-04-04T11:37:17.872Z,18.70
2019-04-04T11:42:20.714Z,19.20
2019-04-04T11:47:23.795Z,19.30
2019-04-04T11:52:26.587Z,19.50
2019-04-04T11:57:29.383Z,20.20
2019-04-04T12:02:33.226Z,20.50
2019-04-04T12:07:38.229Z,21.40
2019-04-04T12:12:41.172Z,22.10
2019-04-04T12:17:43.800Z,22.60
2019-04-04T12:22:46.543Z,22.90
2019-04-04T12:27:49.431Z,23.70
2019-04-04T12:32:52.166Z,24.00
2019-04-04T12:37:54.787Z,24.10
2019-04-04T12:42:57.579Z,23.70
2019-04-04T12:48:00.335Z,23.80
2019-04-04T12:53:03.133Z,24.10
2019-04-04T12:58:05.972Z,24.80
2019-04-04T13:03:08.740Z,25.30
2019-04-04T13:08:11.770Z,25.30
2019-04-04T13:13:14.599Z,25.50
2019-04-04T13:18:17.709Z,26.10
2019-04-04T13:23:20.429Z,26.10
2019-04-04T13:28:23.229Z,25.50
2019-04-04T13:33:25.879Z,26.20
2019-04-04T13:38:28.944Z,26.70
2019-04-04T13:43:31.918Z,26.90
2019-04-04T13:48:36.687Z,27.10
2019-04-04T13:53:41.349Z,27.40
2019-04-04T13:58:43.987Z,26.50
2019-04-04T14:03:48.106Z,27.30
2019-04-04T14:08:50.810Z,27.70
2019-04-04T14:13:53.577Z,27.30
2019-04-04T14:18:56.832Z,27.00
2019-04-04T14:24:12.117Z,27.40
2019-04-04T14:29:05.156Z,27.40
2019-04-04T14:34:11.290Z,27.50
2019-04-04T14:39:13.658Z,27.50
2019-04-04T14:44:18.237Z,27.60
2019-04-04T14:49:20.932Z,27.90
2019-04-04T14:54:23.640Z,28.10
2019-04-04T14:59:27.358Z,27.60
2019-04-04T15:04:30.187Z,26.80
2019-04-04T15:09:34.394Z,26.70
2019-04-04T15:14:37.557Z,26.20
2019-04-04T15:19:40.398Z,26.90
2019-04-04T15:24:44.566Z,26.80
2019-04-04T15:29:47.376Z,26.50
2019-04-04T15:34:50.828Z,25.70
2019-04-04T15:39:53.996Z,24.60
2019-04-04T15:44:56.728Z,23.70
2019-04-04T15:49:59.403Z,23.90
2019-04-04T15:55:02.043Z,24.40
2019-04-04T16:00:05.996Z,24.20
2019-04-04T16:05:09.312Z,23.00
2019-04-04T16:10:17.095Z,22.10
2019-04-04T16:15:27.356Z,21.50
2019-04-04T16:20:31.201Z,21.00
2019-04-04T16:25:33.881Z,21.10
2019-04-04T16:30:36.709Z,21.20
2019-04-04T16:35:39.391Z,21.90
2019-04-04T16:40:50.585Z,22.60
2019-04-04T16:45:54.099Z,22.50
2019-04-04T16:50:56.825Z,22.10
2019-04-04T16:55:59.563Z,21.90
2019-04-04T17:01:02.742Z,21.70
2019-04-04T17:06:05.465Z,20.80
2019-04-04T17:11:08.268Z,19.80
2019-04-04T17:16:11.054Z,19.10
2019-04-04T17:21:13.999Z,18.50
2019-04-04T17:26:16.809Z,17.80
2019-04-04T17:31:19.671Z,17.30
2019-04-04T17:36:22.612Z,16.90
2019-04-04T17:41:25.673Z,16.50
2019-04-04T17:46:28.525Z,16.20
2019-04-04T17:51:31.780Z,15.90
2019-04-04T17:56:35.072Z,15.60
2019-04-04T18:01:38.074Z,15.40
2019-04-04T18:06:41.108Z,15.10
2019-04-04T18:11:43.935Z,14.90
2019-04-04T18:16:48.552Z,14.80
2019-04-04T18:21:51.566Z,14.60
2019-04-04T18:26:54.669Z,14.50
2019-04-04T18:31:58.114Z,14.40
2019-04-04T18:37:01.379Z,14.20
2019-04-04T18:42:04.605Z,14.10
2019-04-04T18:47:07.709Z,14.00
2019-04-04T18:52:10.715Z,13.90
2019-04-04T18:57:13.895Z,13.70
2019-04-04T19:02:17.341Z,13.60
2019-04-04T19:07:20.906Z,13.60
2019-04-04T19:12:23.862Z,13.40
2019-04-04T19:17:26.693Z,13.40
2019-04-04T19:22:29.698Z,13.30
2019-04-04T19:27:37.237Z,13.20
2019-04-04T19:32:40.030Z,13.10
2019-04-04T19:37:43.892Z,13.00
2019-04-04T19:42:46.787Z,12.90
2019-04-04T19:47:50.381Z,12.70
2019-04-04T19:52:53.367Z,12.60
2019-04-04T19:57:56.165Z,12.50
2019-04-04T20:03:00.727Z,12.30
2019-04-04T20:08:03.554Z,12.30
2019-04-04T20:13:06.331Z,12.20
2019-04-04T20:18:13.264Z,12.10
2019-04-04T20:23:16.163Z,12.00
2019-04-04T20:28:18.873Z,11.80
2019-04-04T20:33:21.618Z,11.70
2019-04-04T20:38:24.560Z,11.60
2019-04-04T20:43:28.722Z,11.50
2019-04-04T20:48:31.544Z,11.40
2019-04-04T20:53:34.378Z,11.30
2019-04-04T20:58:37.163Z,11.20
2019-04-04T21:03:40.779Z,11.20
2019-04-04T21:08:43.547Z,11.00
2019-04-04T21:13:55.423Z,11.00
2019-04-04T21:18:50.965Z,10.90
2019-04-04T21:23:53.748Z,10.80
2019-04-04T21:28:56.530Z,10.70
2019-04-04T21:33:59.245Z,10.60
2019-04-04T21:39:02.378Z,10.60
2019-04-04T21:44:09.218Z,10.50
2019-04-04T21:49:11.039Z,10.40
2019-04-04T21:54:13.767Z,10.30
2019-04-04T21:59:17.737Z,10.30
2019-04-04T22:04:20.456Z,10.10
2019-04-04T22:09:23.366Z,10.00
2019-04-04T22:14:26.108Z,9.90
2019-04-04T22:19:28.990Z,9.80
2019-04-04T22:24:31.792Z,9.70
2019-04-04T22:29:34.589Z,9.60
2019-04-04T22:34:37.374Z,9.50
2019-04-04T22:39:40.113Z,9.40
2019-04-04T22:44:44.078Z,9.30
2019-04-04T22:49:46.790Z,9.20
2019-04-04T22:54:51.591Z,9.10
2019-04-04T22:59:55.829Z,9.10
2019-04-04T23:04:59.815Z,8.90
2019-04-04T23:10:02.819Z,8.80
2019-04-04T23:15:07.242Z,8.80
2019-04-04T23:20:10.104Z,8.70
2019-04-04T23:25:13.870Z,8.60
2019-04-04T23:30:17.781Z,8.50
2019-04-04T23:35:20.619Z,8.40
2019-04-04T23:40:23.428Z,8.40
2019-04-04T23:45:26.286Z,8.30
2019-04-04T23:50:29.114Z,8.30
2019-04-04T23:55:32.004Z,8.20
